Time;durP1;ratioP1;P1;durP2;ratioP2;P2;SDS_P1;SDS_P2;PMS_P1;PMS_P2;Temp;Humidity;BMP_temperature;BMP_pressure;BME280_temperature;BME280_humidity;BME280_pressure;Samples;Min_cycle;Max_cycle;Signal;HPM_P1;HPM_P2
2021/05/05 00:00:58;;;;;;;4.90;3.23;;;11.90;81.80;;;;;;4421187;28;656619;-73
2021/05/05 00:03:45;;;;;;;8.10;3.10;;;11.90;81.70;;;;;;4430573;28;657323;-73
2021/05/05 00:06:32;;;;;;;5.83;3.10;;;11.90;81.30;;;;;;4412255;28;656509;-73
2021/05/05 00:09:20;;;;;;;8.83;3.50;;;12.00;81.00;;;;;;4428216;28;657171;-73
2021/05/05 00:12:08;;;;;;;9.47;3.60;;;12.20;80.90;;;;;;4415301;28;656706;-73
2021/05/05 00:14:55;;;;;;;10.13;3.53;;;12.20;80.90;;;;;;4431038;28;658017;-73
2021/05/05 00:17:42;;;;;;;6.77;3.00;;;12.30;81.00;;;;;;4418673;28;657451;-73
2021/05/05 00:20:29;;;;;;;6.63;3.53;;;12.30;80.00;;;;;;4434276;28;656005;-73
2021/05/05 00:23:16;;;;;;;6.30;3.30;;;12.30;80.40;;;;;;4429387;28;656728;-73
2021/05/05 00:26:04;;;;;;;7.57;3.10;;;12.30;80.50;;;;;;4426679;28;657015;-74
2021/05/05 00:28:51;;;;;;;6.33;3.43;;;12.30;81.50;;;;;;4433736;28;657027;-73
2021/05/05 00:31:38;;;;;;;6.53;2.77;;;12.40;81.00;;;;;;4411076;28;656694;-74
2021/05/05 00:34:25;;;;;;;5.70;2.97;;;12.40;81.10;;;;;;4431269;28;656609;-73
2021/05/05 00:37:12;;;;;;;5.07;2.92;;;12.40;81.10;;;;;;4410711;28;656821;-74
2021/05/05 00:39:59;;;;;;;5.00;3.00;;;12.50;81.20;;;;;;4433565;28;655843;-73
2021/05/05 00:42:47;;;;;;;5.20;2.83;;;12.50;81.90;;;;;;4447839;28;657034;-73
2021/05/05 00:45:35;;;;;;;5.90;2.37;;;12.40;81.50;;;;;;4399969;28;657385;-74
2021/05/05 00:48:22;;;;;;;7.47;2.77;;;12.40;82.40;;;;;;4410457;28;656427;-73
2021/05/05 00:51:09;;;;;;;6.33;2.87;;;12.40;82.40;;;;;;4440170;28;656851;-73
2021/05/05 00:53:57;;;;;;;6.03;2.80;;;12.40;82.20;;;;;;4430021;28;657402;-74
2021/05/05 00:56:43;;;;;;;7.33;3.23;;;12.50;82.00;;;;;;4410052;28;656847;-74
2021/05/05 00:59:31;;;;;;;5.20;2.77;;;12.50;82.50;;;;;;4421883;28;657685;-74
2021/05/05 01:02:18;;;;;;;5.40;3.10;;;12.50;82.60;;;;;;4409731;28;656370;-74
2021/05/05 01:05:06;;;;;;;5.00;2.70;;;12.40;82.80;;;;;;4450109;28;656505;-73
2021/05/05 01:07:53;;;;;;;6.60;2.90;;;12.60;82.30;;;;;;4409126;28;657039;-74
2021/05/05 01:10:40;;;;;;;4.53;2.70;;;12.60;81.80;;;;;;4431793;28;657438;-73
2021/05/05 01:13:28;;;;;;;5.30;2.57;;;12.60;82.30;;;;;;4406106;28;656732;-73
2021/05/05 01:16:16;;;;;;;9.17;2.60;;;12.60;81.40;;;;;;4425075;28;656932;-73
2021/05/05 01:19:03;;;;;;;5.67;2.60;;;12.70;81.40;;;;;;4413389;28;657021;-73
2021/05/05 01:21:51;;;;;;;6.30;2.43;;;12.70;81.40;;;;;;4426151;28;657502;-74
2021/05/05 01:24:38;;;;;;;3.60;2.47;;;12.70;82.00;;;;;;4411985;28;656301;-74
2021/05/05 01:27:25;;;;;;;5.57;2.90;;;12.80;81.50;;;;;;4435553;28;657218;-74
2021/05/05 01:30:14;;;;;;;8.47;2.80;;;12.70;81.90;;;;;;4421229;28;656663;-74
2021/05/05 01:33:01;;;;;;;9.85;2.63;;;12.80;81.50;;;;;;4432898;28;656555;-74
2021/05/05 01:35:49;;;;;;;9.13;2.37;;;12.70;82.10;;;;;;4421817;28;656471;-74
2021/05/05 01:38:37;;;;;;;3.80;2.20;;;12.70;81.90;;;;;;4435362;28;656965;-74
2021/05/05 01:41:24;;;;;;;5.70;2.77;;;12.70;82.40;;;;;;4425936;28;657439;-74
2021/05/05 01:44:11;;;;;;;5.33;2.83;;;12.60;83.10;;;;;;4445651;28;657495;-74
2021/05/05 01:46:58;;;;;;;6.23;2.57;;;12.60;84.10;;;;;;4405745;28;656559;-74
2021/05/05 01:49:46;;;;;;;5.47;2.70;;;12.60;84.10;;;;;;4432926;28;657818;-74
2021/05/05 01:52:33;;;;;;;6.67;2.27;;;12.50;85.40;;;;;;4431407;28;656860;-74
2021/05/05 01:55:21;;;;;;;4.07;2.50;;;12.50;86.20;;;;;;4450018;28;656873;-74
2021/05/05 01:58:08;;;;;;;3.87;2.30;;;12.40;85.50;;;;;;4429860;28;656784;-74
2021/05/05 02:00:55;;;;;;;2.93;2.10;;;12.40;84.80;;;;;;4453461;28;657011;-74
2021/05/05 02:03:42;;;;;;;5.50;2.35;;;12.40;84.50;;;;;;4417345;28;656806;-74
2021/05/05 02:06:29;;;;;;;6.30;2.20;;;12.50;84.20;;;;;;4436458;28;656280;-74
2021/05/05 02:09:16;;;;;;;2.77;2.20;;;12.50;83.70;;;;;;4422351;28;657244;-73
2021/05/05 02:12:05;;;;;;;4.17;2.20;;;12.60;83.30;;;;;;4417921;28;656469;-73
2021/05/05 02:14:52;;;;;;;3.77;2.03;;;12.70;84.10;;;;;;4441149;28;656565;-73
2021/05/05 02:17:39;;;;;;;4.10;2.20;;;12.60;84.10;;;;;;4429107;28;656680;-73
2021/05/05 02:20:26;;;;;;;4.20;2.23;;;12.50;84.80;;;;;;4422371;28;656221;-73
2021/05/05 02:23:13;;;;;;;3.53;2.20;;;12.60;84.10;;;;;;4406354;28;656289;-74
2021/05/05 02:26:00;;;;;;;3.53;2.13;;;12.60;84.30;;;;;;4443108;28;657810;-73
2021/05/05 02:28:48;;;;;;;4.73;2.10;;;12.70;82.50;;;;;;4412130;28;656817;-74
2021/05/05 02:31:36;;;;;;;5.73;2.77;;;12.80;81.90;;;;;;4427988;28;657602;-73
2021/05/05 02:34:23;;;;;;;8.87;2.00;;;12.80;82.50;;;;;;4410596;28;656957;-73
2021/05/05 02:37:11;;;;;;;3.97;1.90;;;12.80;82.90;;;;;;4434488;28;657693;-72
2021/05/05 02:39:58;;;;;;;5.07;1.90;;;12.90;81.60;;;;;;4403588;28;656158;-73
2021/05/05 02:42:44;;;;;;;5.43;2.17;;;13.10;80.80;;;;;;4444632;28;657829;-73
2021/05/05 02:45:32;;;;;;;3.90;1.70;;;13.20;80.40;;;;;;4439195;28;656228;-73
2021/05/05 02:48:19;;;;;;;2.03;1.55;;;13.30;78.80;;;;;;4408376;28;657872;-73
2021/05/05 02:51:06;;;;;;;3.80;1.83;;;13.40;78.30;;;;;;4438956;28;656657;-72
2021/05/05 02:53:53;;;;;;;6.03;2.13;;;13.50;78.20;;;;;;4404824;28;656742;-73
2021/05/05 02:56:40;;;;;;;4.40;2.20;;;13.50;78.40;;;;;;4446306;28;657555;-73
2021/05/05 02:59:27;;;;;;;3.45;1.90;;;13.50;78.00;;;;;;4412034;28;656528;-73
2021/05/05 03:02:15;;;;;;;2.47;1.73;;;13.40;78.40;;;;;;4434760;28;655847;-73
2021/05/05 03:05:04;;;;;;;5.00;1.88;;;13.40;78.30;;;;;;4411830;28;657286;-73
2021/05/05 03:07:51;;;;;;;4.60;2.37;;;13.40;79.30;;;;;;4430530;28;656557;-73
2021/05/05 03:10:41;;;;;;;4.57;2.73;;;13.30;80.20;;;;;;4411141;28;656421;-73
2021/05/05 03:13:27;;;;;;;7.17;2.80;;;13.20;81.00;;;;;;4402757;28;656478;-73
2021/05/05 03:16:14;;;;;;;8.30;3.10;;;13.10;81.40;;;;;;4429903;28;657142;-73
2021/05/05 03:19:02;;;;;;;10.17;3.80;;;13.10;81.90;;;;;;4423313;28;656619;-73
2021/05/05 03:21:49;;;;;;;6.57;3.87;;;13.00;82.70;;;;;;4410051;28;657903;-73
2021/05/05 03:24:36;;;;;;;9.23;3.73;;;12.90;83.40;;;;;;4428658;28;657458;-73
2021/05/05 03:27:24;;;;;;;6.77;2.83;;;12.80;83.30;;;;;;4409921;28;656621;-73
2021/05/05 03:30:11;;;;;;;4.87;2.87;;;12.80;84.40;;;;;;4432131;28;657257;-73
2021/05/05 03:32:58;;;;;;;6.18;5.10;;;12.70;85.80;;;;;;4410927;28;657239;-73
2021/05/05 03:35:46;;;;;;;7.55;4.00;;;12.60;86.00;;;;;;4428182;28;657709;-73
2021/05/05 03:38:33;;;;;;;4.40;2.73;;;12.60;86.90;;;;;;4411727;28;657336;-73
2021/05/05 03:41:20;;;;;;;7.37;2.63;;;12.60;87.40;;;;;;4434124;28;657193;-73
2021/05/05 03:44:09;;;;;;;5.13;2.63;;;12.50;87.80;;;;;;4410852;28;656897;-73
2021/05/05 03:46:56;;;;;;;6.83;3.27;;;12.40;89.50;;;;;;4433251;28;656609;-73
2021/05/05 03:49:43;;;;;;;6.63;2.67;;;12.20;90.20;;;;;;4406859;28;656509;-73
2021/05/05 03:52:31;;;;;;;10.20;2.70;;;12.10;90.10;;;;;;4440711;28;656790;-73
2021/05/05 03:55:18;;;;;;;6.47;3.20;;;12.10;90.50;;;;;;4406852;28;658039;-73
2021/05/05 03:58:05;;;;;;;9.97;3.47;;;12.10;91.10;;;;;;4423762;28;657610;-73
2021/05/05 04:00:52;;;;;;;8.37;3.30;;;12.10;91.10;;;;;;4428834;28;656740;-73
2021/05/05 04:03:39;;;;;;;9.03;3.07;;;12.10;91.60;;;;;;4424548;28;656736;-73
2021/05/05 04:06:26;;;;;;;11.87;4.17;;;12.10;92.60;;;;;;4446782;28;656692;-73
2021/05/05 04:09:14;;;;;;;7.33;3.47;;;12.00;93.20;;;;;;4405004;28;657688;-73
2021/05/05 04:12:01;;;;;;;7.97;3.50;;;12.00;93.10;;;;;;4433982;28;656561;-73
2021/05/05 04:14:48;;;;;;;8.07;2.50;;;12.00;93.00;;;;;;4411937;28;656937;-73
2021/05/05 04:17:35;;;;;;;6.83;3.13;;;12.00;92.50;;;;;;4426184;28;657124;-73
2021/05/05 04:20:22;;;;;;;10.53;4.27;;;12.00;92.20;;;;;;4396749;28;657065;-73
2021/05/05 04:23:09;;;;;;;5.03;2.90;;;12.00;93.70;;;;;;4429668;28;657437;-73
2021/05/05 04:25:57;;;;;;;9.40;3.30;;;12.00;93.20;;;;;;4429319;28;656003;-73
2021/05/05 04:28:45;;;;;;;8.43;3.70;;;12.00;93.50;;;;;;4402532;28;656746;-73
2021/05/05 04:31:32;;;;;;;9.07;3.90;;;12.00;94.60;;;;;;4440442;28;656577;-73
2021/05/05 04:34:20;;;;;;;7.73;4.03;;;12.10;95.70;;;;;;4433748;28;657145;-73
2021/05/05 04:37:07;;;;;;;8.63;4.00;;;12.10;96.20;;;;;;4410881;28;656931;-73
2021/05/05 04:39:54;;;;;;;8.50;3.90;;;12.10;97.00;;;;;;4430024;28;657301;-73
2021/05/05 04:42:42;;;;;;;8.63;4.10;;;12.10;97.50;;;;;;4430379;28;656824;-73
2021/05/05 04:45:29;;;;;;;8.83;3.47;;;12.20;97.80;;;;;;4410651;28;657393;-73
2021/05/05 04:48:16;;;;;;;6.97;3.80;;;12.20;98.40;;;;;;4451487;28;656700;-73
2021/05/05 04:51:03;;;;;;;8.80;3.03;;;12.20;99.20;;;;;;4423602;28;657062;-73
2021/05/05 04:53:50;;;;;;;5.57;3.20;;;12.20;99.90;;;;;;4439694;28;658071;-73
2021/05/05 04:56:37;;;;;;;5.97;2.93;;;12.20;99.90;;;;;;4428270;28;656969;-73
2021/05/05 04:59:25;;;;;;;7.90;2.90;;;12.20;99.90;;;;;;4433725;28;656592;-73
2021/05/05 05:02:15;;;;;;;9.00;3.05;;;12.20;99.90;;;;;;4416575;28;656836;-73
2021/05/05 05:05:04;;;;;;;5.83;2.90;;;12.20;99.90;;;;;;4427926;28;656844;-73
2021/05/05 05:07:51;;;;;;;7.70;4.47;;;12.30;99.90;;;;;;4450322;28;656307;-73
2021/05/05 05:10:38;;;;;;;12.93;3.97;;;12.50;99.90;;;;;;4410770;28;657116;-73
2021/05/05 05:13:25;;;;;;;8.27;3.47;;;12.60;99.90;;;;;;4435634;28;658350;-73
2021/05/05 05:16:13;;;;;;;5.87;3.53;;;12.80;99.90;;;;;;4432104;28;656999;-73
2021/05/05 05:19:00;;;;;;;4.83;3.17;;;12.90;99.90;;;;;;4444476;28;657711;-73
2021/05/05 05:21:47;;;;;;;6.70;3.20;;;13.10;99.90;;;;;;4425777;28;656835;-73
2021/05/05 05:24:34;;;;;;;4.97;2.80;;;13.30;99.90;;;;;;4450970;28;656551;-73
2021/05/05 05:27:21;;;;;;;7.57;3.40;;;13.50;99.90;;;;;;4419162;28;656215;-73
2021/05/05 05:30:10;;;;;;;9.20;3.23;;;13.60;99.90;;;;;;4426819;28;656421;-73
2021/05/05 05:32:58;;;;;;;9.75;3.60;;;13.80;99.90;;;;;;4425058;28;656421;-73
2021/05/05 05:35:45;;;;;;;8.47;3.63;;;14.00;99.90;;;;;;4442196;28;656790;-73
2021/05/05 05:38:32;;;;;;;8.73;3.30;;;14.20;99.10;;;;;;4424894;28;656826;-73
2021/05/05 05:41:19;;;;;;;5.70;2.77;;;14.40;98.20;;;;;;4448599;28;656174;-73
2021/05/05 05:44:07;;;;;;;4.43;2.67;;;14.70;97.10;;;;;;4444298;28;657330;-73
2021/05/05 05:46:54;;;;;;;7.30;3.17;;;14.80;94.40;;;;;;4422548;28;657687;-73
2021/05/05 05:49:42;;;;;;;8.03;2.90;;;14.90;92.60;;;;;;4437415;28;656529;-73
2021/05/05 05:52:29;;;;;;;8.50;3.13;;;14.90;91.60;;;;;;4410445;28;656934;-73
2021/05/05 05:55:17;;;;;;;4.70;2.80;;;15.00;92.20;;;;;;4433267;28;656374;-73
2021/05/05 05:58:04;;;;;;;5.60;2.37;;;15.10;92.20;;;;;;4409447;28;657056;-77
2021/05/05 06:00:51;;;;;;;6.90;2.47;;;15.20;90.60;;;;;;4446972;28;656534;-77
2021/05/05 06:03:38;;;;;;;7.20;2.60;;;15.30;91.20;;;;;;4431282;28;656593;-73
2021/05/05 06:06:26;;;;;;;4.10;2.60;;;15.40;90.00;;;;;;4441960;28;656957;-73
2021/05/05 06:09:13;;;;;;;3.90;2.43;;;15.50;89.70;;;;;;4427306;28;656739;-73
2021/05/05 06:12:00;;;;;;;4.25;2.30;;;15.60;89.70;;;;;;4426844;28;658046;-76
2021/05/05 06:14:47;;;;;;;9.60;2.50;;;15.60;89.20;;;;;;4423389;28;656640;-73
2021/05/05 06:17:34;;;;;;;8.70;2.40;;;15.60;88.70;;;;;;4451408;28;656150;-73
2021/05/05 06:20:21;;;;;;;4.60;2.40;;;15.70;89.70;;;;;;4416543;28;656892;-74
2021/05/05 06:23:09;;;;;;;6.20;2.47;;;15.70;86.50;;;;;;4406840;28;656644;-73
2021/05/05 06:25:56;;;;;;;5.23;2.40;;;15.60;86.30;;;;;;4449954;28;656225;-73
2021/05/05 06:28:43;;;;;;;6.13;2.47;;;15.60;88.70;;;;;;4422558;28;656745;-73
2021/05/05 06:31:30;;;;;;;4.33;2.40;;;15.70;88.00;;;;;;4426843;28;657383;-74
2021/05/05 06:34:17;;;;;;;4.50;2.17;;;16.00;86.70;;;;;;4425813;28;656617;-71
2021/05/05 06:37:04;;;;;;;6.20;2.00;;;16.30;85.10;;;;;;4453713;28;657054;-73
2021/05/05 06:39:53;;;;;;;6.20;2.70;;;16.30;85.20;;;;;;4449439;28;656373;-73
2021/05/05 06:42:40;;;;;;;4.10;2.30;;;16.20;82.30;;;;;;4427355;28;657140;-73
2021/05/05 06:45:27;;;;;;;3.10;2.30;;;16.10;81.80;;;;;;4424619;28;656957;-72
2021/05/05 06:48:14;;;;;;;3.17;1.87;;;16.30;83.90;;;;;;4430970;28;657257;-72
2021/05/05 06:51:01;;;;;;;4.70;2.30;;;16.60;82.00;;;;;;4421322;28;656622;-74
2021/05/05 06:53:48;;;;;;;8.53;2.20;;;16.70;84.10;;;;;;4412890;28;657039;-73
2021/05/05 06:56:36;;;;;;;4.23;2.10;;;16.60;81.50;;;;;;4430490;28;656403;-73
2021/05/05 06:59:23;;;;;;;6.35;2.10;;;16.40;80.50;;;;;;4407991;28;656987;-74
2021/05/05 07:02:10;;;;;;;5.90;2.50;;;16.30;81.50;;;;;;4433467;28;656930;-73
2021/05/05 07:04:58;;;;;;;6.30;2.47;;;16.30;81.40;;;;;;4410525;28;656968;-72
2021/05/05 07:07:45;;;;;;;5.83;1.93;;;16.50;84.10;;;;;;4429737;28;656792;-74
2021/05/05 07:10:32;;;;;;;5.40;2.10;;;16.80;83.40;;;;;;4416255;28;656354;-72
2021/05/05 07:13:20;;;;;;;6.83;2.13;;;17.10;81.70;;;;;;4435668;28;656397;-74
2021/05/05 07:16:07;;;;;;;3.67;1.83;;;17.00;79.60;;;;;;4412240;28;656589;-72
2021/05/05 07:18:54;;;;;;;4.97;1.80;;;16.80;77.70;;;;;;4431979;28;656965;-74
2021/05/05 07:21:41;;;;;;;2.97;1.80;;;16.80;80.60;;;;;;4430275;28;657244;-73
2021/05/05 07:24:28;;;;;;;5.47;2.20;;;17.00;77.60;;;;;;4376888;28;656316;-73
2021/05/05 07:27:15;;;;;;;3.93;2.00;;;17.00;77.40;;;;;;4431067;28;658229;-74
2021/05/05 07:30:04;;;;;;;3.50;1.90;;;17.10;78.60;;;;;;4412707;28;656843;-72
2021/05/05 07:32:51;;;;;;;4.63;1.73;;;17.30;76.50;;;;;;4419762;28;656768;-73
2021/05/05 07:35:38;;;;;;;4.17;1.73;;;17.60;76.20;;;;;;4411818;28;656764;-71
2021/05/05 07:38:45;;;;;;;3.50;1.80;;;17.30;73.50;;;;;;4431728;28;656778;-72
2021/05/05 07:45:08;;;;;;;9.00;1.88;;;17.60;75.40;;;;;;4382084;28;656314;-72
2021/05/05 07:48:01;;;;;;;2.67;1.63;;;17.70;72.30;;;;;;4407901;28;657002;-72
2021/05/05 07:50:48;;;;;;;2.28;1.90;;;17.80;72.30;;;;;;4385126;28;657492;-73
2021/05/05 07:53:36;;;;;;;3.73;1.90;;;18.00;72.50;;;;;;4430550;28;656642;-74
2021/05/05 07:56:23;;;;;;;3.47;1.73;;;18.20;72.70;;;;;;4412414;28;656931;-74
2021/05/05 07:59:11;;;;;;;2.90;1.80;;;18.40;72.90;;;;;;4434311;28;656637;-72
2021/05/05 08:01:58;;;;;;;5.53;1.93;;;18.40;70.40;;;;;;4400401;28;656917;-75
2021/05/05 08:04:49;;;;;;;3.00;1.93;;;18.40;71.10;;;;;;4427470;28;657136;-74
2021/05/05 08:07:36;;;;;;;3.50;1.70;;;18.40;69.50;;;;;;4405255;28;656312;-73
2021/05/05 08:10:23;;;;;;;6.27;2.00;;;18.10;69.70;;;;;;4407114;28;657196;-74
2021/05/05 08:13:11;;;;;;;4.30;1.73;;;18.10;70.70;;;;;;4429765;28;656885;-74
2021/05/05 08:15:58;;;;;;;2.57;1.83;;;18.20;70.20;;;;;;4393081;28;656479;-75
2021/05/05 08:18:44;;;;;;;2.43;1.70;;;18.50;68.70;;;;;;4429842;28;657388;-76
2021/05/05 08:21:32;;;;;;;3.93;1.70;;;18.60;67.70;;;;;;4430935;28;656949;-74
2021/05/05 08:24:19;;;;;;;8.13;1.87;;;18.80;67.10;;;;;;4404357;28;656683;-73
2021/05/05 08:27:07;;;;;;;4.60;1.93;;;18.70;67.10;;;;;;4429433;28;657031;-76
2021/05/05 08:29:54;;;;;;;3.97;1.80;;;18.70;68.50;;;;;;4410683;28;656994;-75
2021/05/05 08:32:41;;;;;;;4.87;1.80;;;18.30;68.00;;;;;;4429779;28;656749;-74
2021/05/05 08:35:28;;;;;;;1.83;1.43;;;18.80;71.00;;;;;;4411059;28;656386;-75
2021/05/05 08:38:16;;;;;;;6.00;2.00;;;19.10;66.70;;;;;;4430694;28;657902;-75
2021/05/05 08:41:04;;;;;;;2.30;1.80;;;18.60;64.50;;;;;;4401486;28;657268;-74
2021/05/05 08:43:51;;;;;;;2.80;1.90;;;18.40;65.40;;;;;;4428253;28;656261;-70
2021/05/05 08:46:38;;;;;;;5.20;1.67;;;18.20;67.10;;;;;;4411536;28;656632;-70
2021/05/05 08:49:27;;;;;;;4.77;1.80;;;18.10;68.70;;;;;;4431691;28;657721;-71
2021/05/05 08:52:14;;;;;;;3.60;1.70;;;18.20;69.10;;;;;;4398264;28;657851;-70
2021/05/05 08:55:02;;;;;;;5.13;2.07;;;18.40;69.60;;;;;;4442126;28;657104;-70
2021/05/05 08:57:49;;;;;;;7.57;2.20;;;18.30;66.40;;;;;;4419060;28;657475;-69
2021/05/05 09:00:36;;;;;;;4.73;1.90;;;18.80;70.50;;;;;;4422763;28;656628;-70
2021/05/05 09:03:30;;;;;;;2.97;1.87;;;19.40;67.50;;;;;;4422111;28;656476;-70
2021/05/05 09:06:17;;;;;;;3.17;1.60;;;19.40;63.70;;;;;;4425272;28;656892;-69
2021/05/05 09:09:04;;;;;;;5.63;2.07;;;19.40;64.60;;;;;;4425290;28;656520;-70
2021/05/05 09:11:52;;;;;;;2.87;1.97;;;19.40;63.80;;;;;;4431791;28;657076;-69
2021/05/05 09:14:50;;;;;;;4.17;2.10;;;19.40;63.50;;;;;;4414385;28;657499;-69
2021/05/05 09:17:37;;;;;;;3.23;1.57;;;19.50;65.00;;;;;;4416233;28;656402;-74
2021/05/05 09:20:25;;;;;;;3.10;1.80;;;19.10;61.60;;;;;;4422023;28;657006;-74
2021/05/05 09:23:12;;;;;;;3.93;1.70;;;19.20;65.80;;;;;;4429367;28;656747;-71
2021/05/05 09:25:59;;;;;;;4.70;2.20;;;19.10;63.20;;;;;;4445734;28;656301;-75
2021/05/05 09:28:52;;;;;;;5.03;1.87;;;19.20;65.00;;;;;;4430596;28;656386;-74
2021/05/05 09:31:40;;;;;;;2.00;1.63;;;19.20;61.70;;;;;;4388976;28;657617;-74
2021/05/05 09:34:27;;;;;;;2.17;1.57;;;19.50;64.00;;;;;;4412310;28;657056;-72
2021/05/05 09:37:15;;;;;;;4.93;2.00;;;20.20;65.80;;;;;;4450504;28;656616;-75
2021/05/05 09:40:05;;;;;;;3.20;1.67;;;20.60;63.20;;;;;;4419116;28;657086;-74
2021/05/05 09:42:52;;;;;;;3.07;2.00;;;20.40;59.80;;;;;;4443148;28;656804;-72
2021/05/05 09:45:40;;;;;;;2.47;1.70;;;20.10;59.80;;;;;;4449816;28;656246;-75
2021/05/05 09:48:27;;;;;;;2.50;1.60;;;20.20;59.90;;;;;;4401492;28;657584;-73
2021/05/05 09:51:14;;;;;;;6.07;1.70;;;20.10;59.40;;;;;;4433948;28;656882;-75
2021/05/05 09:54:01;;;;;;;4.47;1.97;;;19.90;60.90;;;;;;4421865;28;656632;-74
2021/05/05 09:56:48;;;;;;;2.17;1.63;;;19.60;59.70;;;;;;4415644;28;656467;-74
2021/05/05 09:59:35;;;;;;;2.30;1.60;;;19.70;60.60;;;;;;4428426;28;656989;-75
2021/05/05 10:02:23;;;;;;;2.50;1.87;;;19.90;60.10;;;;;;4427664;28;656503;-72
2021/05/05 10:05:11;;;;;;;3.40;1.73;;;19.90;58.40;;;;;;4440890;28;657527;-70
2021/05/05 10:07:59;;;;;;;4.07;1.87;;;19.70;58.30;;;;;;4422989;28;656710;-76
2021/05/05 10:10:46;;;;;;;4.70;1.98;;;19.50;59.10;;;;;;4436874;28;656293;-75
2021/05/05 10:13:33;;;;;;;5.17;1.90;;;19.40;59.30;;;;;;4421396;28;656676;-75
2021/05/05 10:16:21;;;;;;;3.87;1.63;;;19.50;59.80;;;;;;4427373;28;657750;-74
2021/05/05 10:19:13;;;;;;;2.60;1.67;;;19.80;58.40;;;;;;4403716;28;656887;-75
2021/05/05 10:22:01;;;;;;;3.97;1.70;;;19.90;58.80;;;;;;4409835;28;657335;-75
2021/05/05 10:24:48;;;;;;;4.40;1.80;;;20.00;58.20;;;;;;4415526;28;656535;-75
2021/05/05 10:27:35;;;;;;;5.27;1.97;;;20.00;61.20;;;;;;4451774;28;657354;-74
2021/05/05 10:30:24;;;;;;;3.80;1.80;;;19.90;58.80;;;;;;4436073;28;656730;-72
2021/05/05 10:33:18;;;;;;;4.13;2.10;;;20.30;59.70;;;;;;4449601;28;656792;-75
2021/05/05 10:36:28;;;;;;;4.77;1.90;;;20.50;56.60;;;;;;4413468;28;656882;-75
2021/05/05 10:39:38;;;;;;;4.30;1.93;;;20.70;57.50;;;;;;4425929;28;657015;-74
2021/05/05 10:42:26;;;;;;;8.60;2.30;;;20.10;56.60;;;;;;4414370;28;657166;-75
2021/05/05 10:45:25;;;;;;;6.23;1.73;;;19.80;59.20;;;;;;4411884;28;657133;-75
2021/05/05 10:48:14;;;;;;;7.47;1.90;;;19.70;58.70;;;;;;4404432;28;656890;-72
2021/05/05 10:51:01;;;;;;;5.27;2.03;;;19.60;60.00;;;;;;4450271;28;657096;-75
2021/05/05 10:53:52;;;;;;;3.33;1.80;;;19.40;59.20;;;;;;4422174;28;656923;-71
2021/05/05 10:56:38;;;;;;;2.97;1.70;;;19.20;61.50;;;;;;4414212;28;656456;-74
2021/05/05 10:59:26;;;;;;;3.63;1.97;;;18.90;60.10;;;;;;4448957;28;657387;-71
2021/05/05 11:02:52;;;;;;;3.07;2.00;;;18.70;61.20;;;;;;4409806;28;656842;-72
2021/05/05 11:05:41;;;;;;;6.23;1.63;;;18.40;62.90;;;;;;4405311;28;656639;-75
2021/05/05 11:08:28;;;;;;;5.43;2.60;;;18.20;62.50;;;;;;4414533;28;656705;-75
2021/05/05 11:11:33;;;;;;;3.50;1.70;;;18.20;63.20;;;;;;4429920;28;657323;-76
2021/05/05 11:14:55;;;;;;;4.63;1.90;;;18.00;62.90;;;;;;4417022;28;656443;-75
2021/05/05 11:17:42;;;;;;;3.53;2.10;;;17.90;63.00;;;;;;4391315;28;656222;-73
2021/05/05 11:20:51;;;;;;;4.23;2.13;;;17.70;64.20;;;;;;4430986;28;656240;-73
2021/05/05 11:23:45;;;;;;;6.30;2.20;;;17.70;63.90;;;;;;4406429;28;656530;-72
2021/05/05 11:26:33;;;;;;;2.97;1.90;;;17.70;65.70;;;;;;4397133;28;656818;-72
2021/05/05 11:29:33;;;;;;;5.50;2.30;;;17.70;65.30;;;;;;4434778;28;657481;-71
2021/05/05 11:32:26;;;;;;;7.57;3.17;;;17.60;66.30;;;;;;4400205;28;656834;-75
2021/05/05 11:35:25;;;;;;;11.03;3.53;;;17.40;69.50;;;;;;4412974;28;656611;-74
2021/05/05 11:38:21;;;;;;;6.57;3.17;;;17.00;72.20;;;;;;4401123;28;657980;-70
2021/05/05 11:41:08;;;;;;;9.47;3.47;;;16.70;75.10;;;;;;4387404;28;658163;-74
2021/05/05 11:43:56;;;;;;;7.53;3.57;;;16.40;78.60;;;;;;4430847;28;658132;-75
2021/05/05 11:46:43;;;;;;;10.87;4.80;;;16.00;82.50;;;;;;4411435;28;656555;-74
2021/05/05 11:49:34;;;;;;;17.67;5.83;;;15.70;86.80;;;;;;4424611;28;658619;-74
2021/05/05 11:52:25;;;;;;;11.23;6.17;;;15.50;92.20;;;;;;4407956;28;657611;-76
2021/05/05 11:55:20;;;;;;;14.37;6.60;;;15.10;93.70;;;;;;4388852;28;657128;-72
2021/05/05 11:58:07;;;;;;;22.17;6.07;;;14.80;96.20;;;;;;4395516;28;657942;-72
2021/05/05 12:00:55;;;;;;;14.90;6.43;;;14.50;98.10;;;;;;4428130;28;657767;-75
2021/05/05 12:03:42;;;;;;;15.70;6.07;;;14.20;99.90;;;;;;4398148;28;657453;-72
2021/05/05 12:06:51;;;;;;;13.93;5.50;;;13.90;99.90;;;;;;4433527;28;657472;-75
2021/05/05 12:09:38;;;;;;;12.20;5.33;;;13.70;99.90;;;;;;4389016;28;657932;-74
2021/05/05 12:12:28;;;;;;;13.20;5.43;;;13.60;99.90;;;;;;4413530;28;658339;-76
2021/05/05 12:15:15;;;;;;;12.67;5.97;;;13.40;99.90;;;;;;4400417;28;658639;-74
2021/05/05 12:18:14;;;;;;;12.23;5.70;;;13.10;99.90;;;;;;4412242;28;657981;-71
2021/05/05 12:21:03;;;;;;;8.23;3.80;;;12.90;99.90;;;;;;4404811;28;657817;-75
2021/05/05 12:23:52;;;;;;;10.47;4.80;;;12.60;99.90;;;;;;4401794;28;657077;-75
2021/05/05 12:26:39;;;;;;;11.20;4.87;;;12.30;99.90;;;;;;4408079;28;658005;-76
2021/05/05 12:29:26;;;;;;;12.27;3.50;;;12.00;99.90;;;;;;4424298;28;657324;-76
2021/05/05 12:32:13;;;;;;;7.22;2.65;;;11.70;99.90;;;;;;4408018;28;657338;-75
2021/05/05 12:35:01;;;;;;;7.75;3.00;;;11.40;99.90;;;;;;4431764;28;657810;-76
2021/05/05 12:37:48;;;;;;;7.07;3.57;;;11.10;99.90;;;;;;4407593;28;656710;-75
2021/05/05 12:40:35;;;;;;;6.50;3.90;;;10.70;99.90;;;;;;4430087;28;657216;-74
2021/05/05 12:43:26;;;;;;;6.20;3.37;;;10.30;99.90;;;;;;4400368;28;656833;-72
2021/05/05 12:46:23;;;;;;;5.45;3.38;;;10.10;99.90;;;;;;4414017;28;656639;-74
2021/05/05 12:49:15;;;;;;;6.93;4.10;;;9.80;99.90;;;;;;4418574;28;656627;-74
2021/05/05 12:52:04;;;;;;;9.87;3.70;;;9.60;99.90;;;;;;4386550;28;655464;-72
2021/05/05 12:54:51;;;;;;;8.00;4.60;;;9.50;99.90;;;;;;4432891;28;655760;-76
2021/05/05 12:57:38;;;;;;;6.43;4.23;;;9.30;99.90;;;;;;4408231;28;655441;-75
2021/05/05 13:00:25;;;;;;;5.25;3.63;;;9.20;99.90;;;;;;4452880;28;655906;-76
2021/05/05 13:03:13;;;;;;;5.45;3.13;;;9.10;99.90;;;;;;4425709;28;655640;-72
2021/05/05 13:06:02;;;;;;;5.57;3.40;;;9.00;99.90;;;;;;4455425;28;656639;-78
2021/05/05 13:08:52;;;;;;;6.47;3.73;;;8.90;99.90;;;;;;4411482;28;655967;-75
2021/05/05 13:11:41;;;;;;;5.87;3.90;;;9.00;99.90;;;;;;4413592;28;655446;-73
2021/05/05 13:14:39;;;;;;;5.57;3.80;;;8.90;99.90;;;;;;4428788;28;656651;-75
2021/05/05 13:17:45;;;;;;;6.17;3.60;;;8.90;99.90;;;;;;4430090;28;655573;-77
2021/05/05 13:20:53;;;;;;;5.20;4.13;;;8.90;99.90;;;;;;4390812;28;655340;-71
2021/05/05 13:33:18;;;;;;;4.10;3.30;;;9.30;99.90;;;;;;4388948;28;655908;-71
2021/05/05 13:36:05;;;;;;;7.07;4.23;;;9.40;99.90;;;;;;4428942;28;656807;-76
2021/05/05 13:38:52;;;;;;;5.80;3.88;;;9.50;99.90;;;;;;4420098;28;655608;-71
2021/05/05 13:41:40;;;;;;;7.33;3.80;;;9.70;99.90;;;;;;4447602;28;656428;-74
2021/05/05 13:44:41;;;;;;;6.00;3.60;;;9.80;99.90;;;;;;4449027;28;655532;-71
2021/05/05 13:47:31;;;;;;;5.77;3.43;;;10.00;99.90;;;;;;4385537;28;656074;-74
2021/05/05 13:50:19;;;;;;;5.60;3.10;;;10.20;99.90;;;;;;4415230;28;656122;-76
2021/05/05 13:53:06;;;;;;;7.40;3.07;;;10.20;99.90;;;;;;4432885;28;657690;-75
2021/05/05 13:55:53;;;;;;;5.17;2.90;;;10.20;99.90;;;;;;4435354;28;656498;-74
2021/05/05 13:58:40;;;;;;;6.37;3.33;;;10.10;99.90;;;;;;4430159;28;657364;-75
2021/05/05 14:01:28;;;;;;;9.40;2.92;;;10.10;99.90;;;;;;4414368;28;657141;-73
2021/05/05 14:04:15;;;;;;;4.87;2.53;;;10.30;99.90;;;;;;4425073;28;656980;-76
2021/05/05 14:07:04;;;;;;;5.00;2.57;;;10.40;99.90;;;;;;4413792;28;657304;-74
2021/05/05 14:09:51;;;;;;;6.07;2.70;;;10.40;99.90;;;;;;4427021;28;656722;-75
2021/05/05 14:12:38;;;;;;;6.93;3.37;;;10.40;99.90;;;;;;4420885;28;656655;-74
2021/05/05 14:15:31;;;;;;;7.20;3.43;;;10.30;99.90;;;;;;4446300;28;657560;-74
2021/05/05 14:18:20;;;;;;;7.47;3.80;;;10.10;99.90;;;;;;4411347;28;656947;-72
2021/05/05 14:21:11;;;;;;;7.00;3.57;;;10.00;99.90;;;;;;4442539;28;656550;-70
2021/05/05 14:23:58;;;;;;;7.03;3.40;;;9.90;99.90;;;;;;4419022;28;657164;-71
2021/05/05 14:26:46;;;;;;;7.10;3.30;;;9.70;99.90;;;;;;4426331;28;656579;-70
2021/05/05 14:29:33;;;;;;;7.37;3.27;;;9.60;99.90;;;;;;4409096;28;655510;-69
2021/05/05 14:32:20;;;;;;;6.53;3.57;;;9.50;99.90;;;;;;4424102;28;655783;-70
2021/05/05 14:35:12;;;;;;;8.23;3.87;;;9.40;99.90;;;;;;4425592;28;655433;-70
2021/05/05 14:38:03;;;;;;;7.03;3.80;;;9.30;99.90;;;;;;4417859;28;656305;-71